Time;durP1;ratioP1;P1;durP2;ratioP2;P2;SDS_P1;SDS_P2;PMS_P1;PMS_P2;Temp;Humidity;BMP_temperature;BMP_pressure;BME280_temperature;BME280_humidity;BME280_pressure;Samples;Min_cycle;Max_cycle;Signal;HPM_P1;HPM_P2
2022/03/09 00:00:16;;;;;;;14.45;9.10;;;;;;;9.78;54.08;99061.44;4917144;29;20025;-50
2022/03/09 00:02:41;;;;;;;16.42;11.38;;;;;;;9.72;54.93;99070.06;4917102;29;20464;-50
2022/03/09 00:05:08;;;;;;;18.63;11.60;;;;;;;9.60;54.95;99069.72;4916975;29;20540;-50
2022/03/09 00:07:34;;;;;;;17.77;10.45;;;;;;;9.53;55.66;99082.72;4915677;29;20024;-50
2022/03/09 00:10:00;;;;;;;20.45;12.48;;;;;;;9.53;57.24;99076.69;4917025;29;20039;-49
2022/03/09 00:12:26;;;;;;;11.75;8.65;;;;;;;9.64;56.96;99089.31;4916802;29;20513;-50
2022/03/09 00:14:51;;;;;;;13.00;10.70;;;;;;;9.78;56.05;99085.03;4915396;29;20048;-50
2022/03/09 00:17:17;;;;;;;19.10;10.75;;;;;;;9.79;55.09;99078.78;4915508;29;20039;-50
2022/03/09 00:19:43;;;;;;;14.80;9.90;;;;;;;9.88;55.61;99084.72;4914510;29;20055;-50
2022/03/09 00:22:08;;;;;;;14.10;10.13;;;;;;;9.78;54.88;99109.44;4916735;29;20024;-49
2022/03/09 00:24:34;;;;;;;19.23;10.43;;;;;;;9.65;56.02;99090.94;4915401;29;20024;-50
2022/03/09 00:27:01;;;;;;;16.88;11.20;;;;;;;9.67;56.78;99104.66;4916610;29;20597;-48
2022/03/09 00:29:27;;;;;;;12.23;9.85;;;;;;;9.74;55.53;99089.03;4915290;29;20029;-49
2022/03/09 00:31:53;;;;;;;21.48;18.10;;;;;;;9.68;55.12;99095.81;4916529;29;20160;-50
2022/03/09 00:34:19;;;;;;;40.97;35.75;;;;;;;9.70;56.03;99103.47;4915085;29;20024;-49
2022/03/09 00:36:45;;;;;;;20.33;14.48;;;;;;;9.79;54.87;99124.16;4916468;29;20074;-49
2022/03/09 00:39:11;;;;;;;14.88;11.88;;;;;;;9.80;54.75;99104.00;4915125;29;20028;-49
2022/03/09 00:41:37;;;;;;;13.68;11.30;;;;;;;9.88;54.78;99121.41;4915040;29;20039;-49
2022/03/09 00:44:04;;;;;;;18.48;11.93;;;;;;;9.87;54.62;99120.59;4916390;29;20035;-49
2022/03/09 00:46:30;;;;;;;18.80;11.15;;;;;;;9.88;54.34;99127.50;4916323;29;20024;-50
2022/03/09 00:48:56;;;;;;;13.88;10.20;;;;;;;9.85;54.44;99122.59;4916307;29;20035;-50
2022/03/09 00:51:22;;;;;;;16.63;11.10;;;;;;;9.87;54.27;99122.44;4916190;29;20225;-49
2022/03/09 00:53:48;;;;;;;17.23;12.57;;;;;;;9.84;54.14;99126.25;4916162;29;20024;-50
2022/03/09 00:56:14;;;;;;;18.52;9.57;;;;;;;9.89;54.12;99138.78;4914919;29;20112;-49
2022/03/09 00:58:40;;;;;;;641.72;48.17;;;;;;;9.88;56.33;99119.63;4916139;29;20024;-49
2022/03/09 01:01:06;;;;;;;20.27;12.02;;;;;;;9.90;54.87;99133.38;4916111;29;20030;-50
2022/03/09 01:03:32;;;;;;;13.88;10.88;;;;;;;9.91;54.37;99124.50;4916096;29;20028;-48
2022/03/09 01:05:58;;;;;;;13.02;10.82;;;;;;;10.02;54.52;99135.50;4914759;29;20422;-49
2022/03/09 01:08:24;;;;;;;14.43;11.68;;;;;;;10.16;54.39;99138.06;4916012;29;20027;-50
2022/03/09 01:10:50;;;;;;;17.60;10.95;;;;;;;10.22;53.54;99141.75;4915972;29;20032;-49
2022/03/09 01:13:16;;;;;;;18.73;12.68;;;;;;;10.25;53.72;99143.19;4915605;29;20065;-50
2022/03/09 01:15:41;;;;;;;17.13;12.27;;;;;;;10.34;54.24;99147.34;4914683;29;20494;-49
2022/03/09 01:18:07;;;;;;;13.15;11.00;;;;;;;10.29;53.59;99144.44;4914552;29;20028;-49
2022/03/09 01:20:33;;;;;;;19.30;12.32;;;;;;;10.31;53.61;99150.34;4915745;29;20052;-50
2022/03/09 01:22:59;;;;;;;17.45;11.50;;;;;;;10.24;53.33;99139.78;4914514;29;20513;-49
2022/03/09 01:25:25;;;;;;;15.00;11.82;;;;;;;10.10;53.32;99149.31;4914409;29;20039;-49
2022/03/09 01:27:51;;;;;;;15.38;12.45;;;;;;;10.15;53.65;99144.31;4915735;29;20379;-48
2022/03/09 01:30:16;;;;;;;18.02;10.93;;;;;;;10.20;53.21;99149.00;4915389;29;20025;-50
2022/03/09 01:32:42;;;;;;;16.33;12.10;;;;;;;10.21;52.98;99148.00;4915586;29;20408;-49
2022/03/09 01:35:09;;;;;;;17.88;11.75;;;;;;;10.11;53.34;99140.44;4915620;29;20021;-49
2022/03/09 01:37:34;;;;;;;17.55;12.52;;;;;;;10.11;53.37;99145.69;4915645;29;20059;-49
2022/03/09 01:40:00;;;;;;;17.42;11.75;;;;;;;10.25;53.82;99153.69;4915584;29;20048;-50
2022/03/09 01:42:26;;;;;;;18.02;11.70;;;;;;;10.28;54.28;99154.13;4914225;29;20058;-50
2022/03/09 01:44:52;;;;;;;17.83;11.48;;;;;;;10.44;54.11;99153.09;4914303;29;20084;-49
2022/03/09 01:47:18;;;;;;;21.63;13.18;;;;;;;10.67;55.49;99145.03;4915521;29;20538;-49
2022/03/09 01:49:43;;;;;;;19.88;11.80;;;;;;;10.87;54.81;99147.81;4914229;29;20038;-50
2022/03/09 01:52:11;;;;;;;16.60;11.73;;;;;;;11.05;55.71;99143.91;4914279;29;20034;-50
2022/03/09 01:54:39;;;;;;;16.20;12.63;;;;;;;11.26;54.97;99137.75;4915998;29;20040;-49
2022/03/09 01:57:06;;;;;;;23.40;11.63;;;;;;;11.40;53.95;99155.22;4915440;29;20024;-49
2022/03/09 01:59:31;;;;;;;17.40;11.00;;;;;;;11.43;53.19;99162.72;4915466;29;20025;-50
2022/03/09 02:01:57;;;;;;;37.22;12.95;;;;;;;11.30;52.62;99167.91;4915435;29;20032;-50
2022/03/09 02:04:23;;;;;;;17.30;10.95;;;;;;;11.00;54.25;99166.28;4914369;29;20032;-49
2022/03/09 02:06:49;;;;;;;16.95;12.23;;;;;;;10.83;55.69;99157.06;4914057;29;20036;-49
2022/03/09 02:11:58;;;;;;;16.70;11.93;;;;;;;10.85;55.21;99157.69;4915399;29;20043;-50
2022/03/09 02:14:37;;;;;;;15.02;10.45;;;;;;;11.02;54.51;99160.84;4914992;29;20127;-49
2022/03/09 02:17:06;;;;;;;15.18;11.13;;;;;;;11.09;53.70;99166.97;4915257;29;20024;-49
2022/03/09 02:19:33;;;;;;;35.55;11.95;;;;;;;10.92;53.31;99166.41;4914037;29;20115;-50
2022/03/09 02:22:24;;;;;;;14.70;11.75;;;;;;;10.92;53.49;99165.63;4915272;29;20020;-50
2022/03/09 02:24:51;;;;;;;16.50;12.23;;;;;;;11.03;53.25;99162.47;4915284;29;20032;-50
2022/03/09 02:27:20;;;;;;;17.33;11.77;;;;;;;11.13;52.94;99162.16;4915166;29;20020;-50
2022/03/09 02:29:47;;;;;;;15.93;11.00;;;;;;;11.16;53.26;99169.63;4915192;29;20060;-49
2022/03/09 02:32:13;;;;;;;20.00;11.98;;;;;;;11.16;53.95;99169.63;4915081;29;20503;-51
2022/03/09 02:34:38;;;;;;;14.90;11.38;;;;;;;11.26;54.41;99158.78;4915098;29;20111;-49
2022/03/09 02:37:04;;;;;;;22.60;11.02;;;;;;;11.40;52.77;99160.47;4913857;29;20435;-50
2022/03/09 02:39:30;;;;;;;15.75;10.52;;;;;;;11.33;51.61;99172.78;4915079;29;20028;-49
2022/03/09 02:41:56;;;;;;;14.55;11.75;;;;;;;11.22;53.32;99170.69;4914258;29;20561;-49
2022/03/09 02:44:22;;;;;;;14.98;10.30;;;;;;;10.98;52.38;99173.53;4918479;29;20028;-50
2022/03/09 02:46:47;;;;;;;13.55;11.10;;;;;;;10.90;51.57;99175.50;4918406;29;20522;-50
2022/03/09 02:49:13;;;;;;;15.68;11.40;;;;;;;10.80;53.51;99183.69;4918427;29;20082;-49
2022/03/09 02:51:39;;;;;;;17.55;10.57;;;;;;;10.71;52.05;99185.66;4918365;29;20111;-49
2022/03/09 02:54:04;;;;;;;17.42;11.75;;;;;;;10.55;51.47;99183.28;4918222;29;20039;-49
2022/03/09 02:56:31;;;;;;;15.82;10.48;;;;;;;10.39;51.73;99181.72;4918325;29;20438;-50
2022/03/09 02:58:57;;;;;;;15.35;10.45;;;;;;;10.33;51.64;99185.09;4918273;29;20020;-50
2022/03/09 03:01:23;;;;;;;14.93;10.70;;;;;;;10.13;52.11;99190.88;4916829;29;20474;-50
2022/03/09 03:03:48;;;;;;;14.00;10.38;;;;;;;10.04;52.35;99188.56;4918223;29;20028;-49
2022/03/09 03:06:14;;;;;;;16.02;10.75;;;;;;;9.96;51.95;99192.09;4918070;29;20067;-50
2022/03/09 03:08:41;;;;;;;15.77;11.50;;;;;;;9.85;52.51;99190.75;4916932;29;20025;-49
2022/03/09 03:11:08;;;;;;;17.00;10.85;;;;;;;9.82;52.42;99180.66;4916695;29;20035;-47
2022/03/09 03:13:35;;;;;;;14.50;10.60;;;;;;;9.94;52.70;99188.84;4917797;29;20063;-50
2022/03/09 03:16:01;;;;;;;15.43;10.68;;;;;;;9.86;52.03;99184.53;4917941;29;20168;-49
2022/03/09 03:18:27;;;;;;;18.63;11.68;;;;;;;9.86;52.43;99178.47;4916576;29;20079;-49
2022/03/09 03:20:54;;;;;;;15.30;11.10;;;;;;;9.55;52.71;99172.44;4917837;29;20522;-50
2022/03/09 03:23:29;;;;;;;19.08;12.10;;;;;;;9.26;53.55;99181.13;4917858;29;20032;-50
2022/03/09 03:25:56;;;;;;;16.65;11.82;;;;;;;9.16;53.96;99183.19;4916417;29;20508;-49
2022/03/09 03:28:23;;;;;;;16.80;12.15;;;;;;;9.10;53.33;99194.38;4917743;29;20043;-49
2022/03/09 03:30:49;;;;;;;16.17;12.15;;;;;;;9.02;53.89;99189.22;4917678;29;20032;-50
2022/03/09 03:33:16;;;;;;;15.13;12.05;;;;;;;9.08;53.95;99201.59;4916265;29;20032;-49
2022/03/09 03:35:42;;;;;;;16.08;11.20;;;;;;;9.18;53.78;99194.28;4916287;29;20024;-50
2022/03/09 03:38:08;;;;;;;15.95;11.27;;;;;;;9.24;53.38;99184.91;4917540;29;20897;-49
2022/03/09 03:40:34;;;;;;;17.98;12.48;;;;;;;9.13;52.71;99192.19;4917510;29;20108;-49
2022/03/09 03:42:59;;;;;;;21.05;12.52;;;;;;;9.02;53.14;99182.16;4917504;29;20390;-49
2022/03/09 03:45:25;;;;;;;18.27;12.18;;;;;;;8.97;53.21;99184.50;4917450;29;20031;-49
2022/03/09 03:47:51;;;;;;;18.48;12.48;;;;;;;8.78;53.89;99177.97;4917377;29;20446;-49
2022/03/09 03:50:18;;;;;;;18.42;12.52;;;;;;;8.60;54.34;99191.34;4916023;29;20490;-49
2022/03/09 03:52:43;;;;;;;15.60;12.13;;;;;;;8.47;54.26;99180.63;4917054;29;20364;-50
2022/03/09 03:55:09;;;;;;;19.20;13.68;;;;;;;8.16;54.90;99176.22;4917238;29;20028;-49
2022/03/09 03:57:35;;;;;;;16.23;12.88;;;;;;;7.83;55.21;99186.03;4915911;29;20035;-49
2022/03/09 04:00:02;;;;;;;18.30;13.60;;;;;;;7.54;56.27;99185.66;4917160;29;20406;-48
2022/03/09 04:02:28;;;;;;;17.98;13.68;;;;;;;7.37;57.33;99194.53;4917118;29;20024;-49
2022/03/09 04:04:53;;;;;;;17.88;12.68;;;;;;;7.32;56.93;99191.59;4917122;29;20562;-49
2022/03/09 04:07:19;;;;;;;16.25;12.68;;;;;;;7.32;56.91;99189.78;4915760;29;20455;-49
2022/03/09 04:09:46;;;;;;;17.98;13.52;;;;;;;7.24;57.34;99195.03;4915703;29;20028;-49
2022/03/09 04:12:11;;;;;;;19.23;13.63;;;;;;;7.07;57.80;99194.25;4916899;29;20107;-49
2022/03/09 04:14:37;;;;;;;23.60;14.32;;;;;;;7.00;58.53;99199.31;4915376;29;20615;-49
2022/03/09 04:17:03;;;;;;;19.88;13.40;;;;;;;6.94;58.29;99202.59;4915476;29;20032;-49
2022/03/09 04:19:29;;;;;;;16.75;13.45;;;;;;;6.74;58.25;99193.44;4915541;29;20036;-49
2022/03/09 04:21:55;;;;;;;17.20;13.85;;;;;;;6.60;59.28;99200.13;4916761;29;20376;-49
2022/03/09 04:24:20;;;;;;;18.48;13.60;;;;;;;6.50;59.98;99207.28;4915369;29;20529;-49
2022/03/09 04:26:46;;;;;;;20.98;13.93;;;;;;;6.43;59.84;99203.69;4916669;29;20438;-49
2022/03/09 04:29:12;;;;;;;19.45;14.25;;;;;;;6.47;60.13;99197.97;4915361;29;20133;-49
2022/03/09 04:31:38;;;;;;;21.27;13.73;;;;;;;6.48;59.71;99209.22;4916562;29;20055;-50
2022/03/09 04:34:04;;;;;;;20.27;13.82;;;;;;;6.52;60.51;99213.13;4915166;29;20490;-49
2022/03/09 04:36:30;;;;;;;21.23;14.55;;;;;;;6.57;60.36;99211.69;4916523;29;20031;-49
2022/03/09 04:38:55;;;;;;;24.88;14.25;;;;;;;6.49;60.23;99211.69;4916419;29;20028;-49
2022/03/09 04:41:21;;;;;;;21.25;14.18;;;;;;;6.48;60.71;99215.28;4916474;29;20115;-48
2022/03/09 04:43:47;;;;;;;19.65;14.50;;;;;;;6.47;60.39;99212.81;4915113;29;20047;-48
2022/03/09 04:46:13;;;;;;;19.58;14.07;;;;;;;6.45;60.25;99228.63;4915001;29;20028;-50
2022/03/09 04:48:39;;;;;;;24.75;15.63;;;;;;;6.47;59.76;99220.63;4916323;29;20034;-49
2022/03/09 04:51:05;;;;;;;20.77;13.77;;;;;;;6.42;60.70;99230.72;4916260;29;20024;-49
2022/03/09 04:53:31;;;;;;;26.45;16.15;;;;;;;6.45;59.98;99233.84;4916139;29;20080;-50
2022/03/09 04:55:58;;;;;;;27.20;17.00;;;;;;;6.48;59.91;99236.13;4916132;29;20482;-49
2022/03/09 04:58:25;;;;;;;21.73;16.08;;;;;;;6.59;59.90;99227.19;4914840;29;20044;-49
2022/03/09 05:00:51;;;;;;;25.83;14.75;;;;;;;6.80;59.73;99237.13;4915056;29;20024;-49
2022/03/09 05:03:17;;;;;;;21.98;14.43;;;;;;;6.95;59.50;99245.94;4914752;29;20036;-49
2022/03/09 05:05:43;;;;;;;17.50;13.25;;;;;;;7.28;58.31;99243.31;4914207;29;20032;-49
2022/03/09 05:08:09;;;;;;;18.67;14.73;;;;;;;7.35;57.71;99244.28;4915987;29;20032;-49
2022/03/09 05:10:36;;;;;;;26.05;14.18;;;;;;;7.34;57.53;99245.25;4915966;29;20047;-49
2022/03/09 05:13:02;;;;;;;19.67;13.57;;;;;;;7.32;58.18;99251.63;4915612;29;20171;-49
2022/03/09 05:15:28;;;;;;;20.77;13.73;;;;;;;7.34;57.79;99247.88;4914654;29;20471;-49
2022/03/09 05:17:54;;;;;;;21.67;13.57;;;;;;;7.32;57.40;99249.84;4915831;29;20024;-49
2022/03/09 05:20:20;;;;;;;23.95;15.50;;;;;;;7.12;57.42;99252.00;4915841;29;20115;-49
2022/03/09 05:22:47;;;;;;;25.23;15.18;;;;;;;6.95;59.22;99251.16;4915887;29;20028;-50
2022/03/09 05:25:13;;;;;;;22.95;13.85;;;;;;;7.07;58.44;99261.28;4915737;29;20174;-49
2022/03/09 05:27:40;;;;;;;18.05;14.25;;;;;;;6.99;57.63;99257.69;4915797;29;20159;-49
2022/03/09 05:30:09;;;;;;;21.13;14.05;;;;;;;6.91;58.24;99257.69;4914374;29;20031;-49
2022/03/09 05:32:35;;;;;;;20.17;13.73;;;;;;;7.00;58.20;99259.34;4915634;29;20020;-49
2022/03/09 05:35:02;;;;;;;23.90;13.63;;;;;;;6.90;58.39;99255.25;4914397;29;20059;-49
2022/03/09 05:37:31;;;;;;;19.45;14.00;;;;;;;6.92;58.53;99259.34;4915693;29;20039;-49
2022/03/09 05:39:56;;;;;;;19.85;13.25;;;;;;;6.97;58.59;99261.44;4915643;29;20028;-49
2022/03/09 05:42:22;;;;;;;24.17;14.95;;;;;;;6.91;58.03;99259.50;4914351;29;20038;-49
2022/03/09 05:44:48;;;;;;;22.73;15.57;;;;;;;6.94;58.06;99264.38;4914300;29;20028;-50
2022/03/09 05:47:13;;;;;;;27.77;17.05;;;;;;;6.98;58.47;99258.69;4914344;29;20024;-49
2022/03/09 05:49:39;;;;;;;18.10;13.35;;;;;;;6.98;58.80;99256.06;4915650;29;20088;-49
2022/03/09 05:52:05;;;;;;;21.00;14.43;;;;;;;7.04;57.47;99253.78;4914228;29;20020;-49
2022/03/09 05:54:31;;;;;;;28.38;15.65;;;;;;;7.05;57.71;99256.22;4915471;29;20028;-49
2022/03/09 05:56:57;;;;;;;22.92;15.43;;;;;;;7.19;57.94;99252.16;4915489;29;20502;-49
2022/03/09 05:59:22;;;;;;;24.70;15.35;;;;;;;7.32;57.82;99247.22;4915473;29;20038;-49
2022/03/09 06:01:48;;;;;;;22.98;15.60;;;;;;;7.48;56.94;99250.78;4915396;29;20032;-50
2022/03/09 06:04:14;;;;;;;19.92;15.23;;;;;;;7.56;56.45;99263.84;4914186;29;20032;-50
2022/03/09 06:06:40;;;;;;;24.52;15.98;;;;;;;7.60;55.83;99270.34;4914100;29;20030;-49
2022/03/09 06:09:06;;;;;;;21.75;14.45;;;;;;;7.53;56.44;99266.81;4915401;29;20393;-49
2022/03/09 06:11:31;;;;;;;26.35;13.90;;;;;;;7.36;56.15;99276.44;4914088;29;20028;-48
2022/03/09 06:13:57;;;;;;;27.48;16.08;;;;;;;7.22;57.17;99280.53;4914979;29;20404;-49
2022/03/09 06:16:23;;;;;;;22.80;14.57;;;;;;;7.27;57.07;99275.63;4914054;29;20640;-49
2022/03/09 06:18:49;;;;;;;28.13;16.52;;;;;;;7.37;56.44;99284.09;4918614;29;20548;-49
2022/03/09 06:21:15;;;;;;;20.50;16.67;;;;;;;7.53;56.24;99283.28;4918969;29;20043;-49
2022/03/09 06:23:41;;;;;;;26.45;16.00;;;;;;;7.58;55.70;99285.38;4918914;29;20398;-49
2022/03/09 06:26:07;;;;;;;24.08;15.45;;;;;;;7.66;56.39;99282.75;4918839;29;20079;-50
2022/03/09 06:28:33;;;;;;;27.88;15.70;;;;;;;7.98;55.15;99278.44;4918763;29;20029;-49
2022/03/09 06:30:59;;;;;;;21.13;15.90;;;;;;;8.23;54.34;99281.78;4918744;29;20028;-49
2022/03/09 06:33:25;;;;;;;30.50;16.63;;;;;;;8.36;53.85;99273.38;4917649;29;20024;-49
2022/03/09 06:35:50;;;;;;;21.25;16.55;;;;;;;8.66;53.65;99279.59;4918671;29;20080;-50
2022/03/09 06:38:16;;;;;;;27.40;15.93;;;;;;;9.05;51.92;99277.88;4918666;29;20504;-49
2022/03/09 06:40:43;;;;;;;25.85;15.07;;;;;;;9.41;51.27;99272.81;4918610;29;20032;-50
2022/03/09 06:43:09;;;;;;;24.38;15.30;;;;;;;9.86;50.20;99278.91;4918549;29;20027;-50
2022/03/09 06:45:35;;;;;;;26.52;16.50;;;;;;;10.19;49.22;99279.31;4918503;29;20028;-50
2022/03/09 06:48:02;;;;;;;24.27;16.83;;;;;;;10.05;48.35;99279.34;4918467;29;20035;-50
2022/03/09 06:50:29;;;;;;;28.15;16.70;;;;;;;9.60;49.41;99284.59;4918407;29;20083;-50
2022/03/09 06:52:55;;;;;;;19.42;15.23;;;;;;;9.26;50.40;99285.06;4918332;29;20403;-50
2022/03/09 06:55:21;;;;;;;21.65;16.23;;;;;;;9.02;51.09;99288.69;4918383;29;20534;-49
2022/03/09 06:57:47;;;;;;;22.23;15.82;;;;;;;9.00;51.54;99292.28;4916994;29;20502;-48
2022/03/09 07:00:14;;;;;;;27.65;16.80;;;;;;;9.15;51.39;99288.91;4918246;29;20043;-49
2022/03/09 07:02:41;;;;;;;25.33;16.08;;;;;;;9.14;50.82;99293.34;4918223;29;20024;-50
2022/03/09 07:05:07;;;;;;;22.05;16.10;;;;;;;9.22;50.73;99289.03;4918186;29;20044;-49
2022/03/09 07:07:33;;;;;;;17.60;15.48;;;;;;;9.34;50.45;99285.00;4918126;29;20083;-49
2022/03/09 07:09:59;;;;;;;24.23;15.88;;;;;;;9.52;50.74;99293.34;4918014;29;20506;-49
2022/03/09 07:12:25;;;;;;;26.83;15.75;;;;;;;9.90;49.88;99297.69;4901049;29;20032;-49
2022/03/09 07:14:51;;;;;;;27.52;16.80;;;;;;;10.34;48.37;99289.00;4917728;29;20422;-49
2022/03/09 07:17:18;;;;;;;30.08;17.27;;;;;;;10.43;47.99;99300.25;4916620;29;20039;-49
2022/03/09 07:19:43;;;;;;;26.38;18.50;;;;;;;10.58;47.61;99293.13;4917866;29;20443;-50
2022/03/09 07:22:10;;;;;;;26.00;19.25;;;;;;;10.87;46.74;99297.47;4916601;29;20574;-50
2022/03/09 07:24:36;;;;;;;23.92;18.42;;;;;;;11.18;46.09;99297.16;4917805;29;20402;-50
2022/03/09 07:27:02;;;;;;;27.42;18.02;;;;;;;11.64;45.11;99298.53;4916515;29;20055;-50
2022/03/09 07:29:29;;;;;;;26.75;19.30;;;;;;;12.12;44.17;99300.47;4917283;29;20039;-50
2022/03/09 07:31:55;;;;;;;22.67;17.15;;;;;;;12.33;43.16;99299.53;4917698;29;20071;-49
2022/03/09 07:34:26;;;;;;;32.80;17.77;;;;;;;12.48;43.00;99296.75;4916315;29;20028;-50
2022/03/09 07:36:58;;;;;;;28.25;16.17;;;;;;;12.74;42.94;99302.09;4917661;29;20070;-49
2022/03/09 07:39:28;;;;;;;23.63;15.90;;;;;;;13.25;42.02;99297.31;4917640;29;20116;-50
2022/03/09 07:41:55;;;;;;;23.63;16.00;;;;;;;13.82;41.16;99292.41;4916204;29;20402;-49
2022/03/09 07:44:22;;;;;;;22.88;15.43;;;;;;;14.25;39.93;99292.69;4916208;29;20459;-49
2022/03/09 07:46:48;;;;;;;18.33;14.75;;;;;;;14.48;38.86;99289.53;4917352;29;20028;-50
2022/03/09 07:49:15;;;;;;;24.70;15.20;;;;;;;14.55;38.72;99292.16;4916158;29;20028;-50
2022/03/09 07:51:40;;;;;;;20.40;15.82;;;;;;;14.65;38.63;99297.00;4917370;29;20020;-49
2022/03/09 07:54:06;;;;;;;20.42;15.55;;;;;;;14.98;37.95;99292.31;4917216;29;20043;-50
2022/03/09 07:56:34;;;;;;;22.70;15.10;;;;;;;15.00;38.02;99293.97;4917311;29;20017;-49
2022/03/09 07:59:03;;;;;;;22.88;15.45;;;;;;;15.04;37.79;99292.50;4917204;29;20039;-49
2022/03/09 08:01:29;;;;;;;23.10;16.08;;;;;;;15.36;37.45;99293.28;4917203;29;20028;-50
2022/03/09 08:03:55;;;;;;;21.25;15.55;;;;;;;15.58;37.13;99296.34;4917136;29;20514;-50
2022/03/09 08:06:20;;;;;;;23.48;17.70;;;;;;;15.84;36.73;99294.50;4917082;29;20159;-49
2022/03/09 08:08:47;;;;;;;24.23;16.05;;;;;;;16.36;36.33;99294.94;4917067;29;20020;-50
2022/03/09 08:11:13;;;;;;;21.10;15.60;;;;;;;16.84;35.21;99298.59;4915810;29;20039;-50
2022/03/09 08:13:39;;;;;;;15.40;13.75;;;;;;;16.72;35.73;99294.03;4916636;29;20044;-50
2022/03/09 08:16:06;;;;;;;18.13;15.23;;;;;;;16.56;34.87;99287.53;4915588;29;20035;-50
2022/03/09 08:18:32;;;;;;;19.83;14.85;;;;;;;16.49;36.16;99293.94;4916832;29;20039;-50
2022/03/09 08:20:58;;;;;;;43.78;15.75;;;;;;;16.87;34.96;99296.31;4916759;29;20029;-49
2022/03/09 08:23:23;;;;;;;18.42;15.90;;;;;;;17.25;34.51;99300.41;4916793;29;20395;-50
2022/03/09 08:25:50;;;;;;;20.67;15.18;;;;;;;17.73;33.33;99294.09;4915383;29;20025;-50
2022/03/09 08:28:17;;;;;;;17.77;14.63;;;;;;;17.84;33.69;99292.50;4916694;29;20032;-50
2022/03/09 08:30:42;;;;;;;20.60;14.35;;;;;;;18.39;33.37;99293.06;4915319;29;20034;-50
2022/03/09 08:33:08;;;;;;;19.02;14.05;;;;;;;18.91;32.16;99285.84;4916561;29;20107;-50
2022/03/09 08:35:34;;;;;;;19.05;12.90;;;;;;;19.14;30.92;99284.06;4915252;29;20025;-50
2022/03/09 08:38:02;;;;;;;19.90;13.27;;;;;;;19.05;31.25;99285.50;4916727;29;20088;-51
2022/03/09 08:40:27;;;;;;;18.02;14.30;;;;;;;19.25;31.35;99288.47;4915650;29;20060;-50
2022/03/09 08:42:53;;;;;;;20.15;13.13;;;;;;;19.46;31.18;99281.63;4916392;29;20032;-50
2022/03/09 08:45:19;;;;;;;16.63;13.13;;;;;;;19.83;30.70;99285.63;4916350;29;20418;-50
2022/03/09 08:47:45;;;;;;;16.60;14.23;;;;;;;20.28;29.04;99289.91;4916348;29;20032;-50
2022/03/09 08:50:11;;;;;;;18.83;13.85;;;;;;;19.83;30.04;99283.78;4916225;29;20487;-50
2022/03/09 08:52:37;;;;;;;18.75;13.80;;;;;;;19.87;30.15;99279.56;4916163;29;20032;-50
2022/03/09 08:55:04;;;;;;;24.15;14.07;;;;;;;20.68;29.40;99278.91;4916185;29;20039;-50
2022/03/09 08:57:31;;;;;;;21.48;14.05;;;;;;;21.43;28.12;99275.53;4915044;29;20566;-51
2022/03/09 09:00:03;;;;;;;21.15;14.13;;;;;;;21.49;27.99;99285.19;4916136;29;20513;-50
2022/03/09 09:02:30;;;;;;;20.08;13.27;;;;;;;21.79;27.62;99276.53;4915083;29;20032;-50
2022/03/09 09:04:57;;;;;;;16.65;12.32;;;;;;;21.08;31.66;99280.31;4914850;29;20028;-50
2022/03/09 09:07:24;;;;;;;12.80;11.43;;;;;;;20.67;29.53;99285.31;4916034;29;20043;-50
2022/03/09 09:09:50;;;;;;;18.20;12.23;;;;;;;19.45;30.25;99287.19;4915999;29;20107;-50
2022/03/09 09:12:16;;;;;;;22.50;12.13;;;;;;;19.11;31.18;99295.19;4915939;29;20111;-50
2022/03/09 09:14:41;;;;;;;10.85;7.95;;;;;;;20.21;29.79;99287.44;4915618;29;20052;-50
2022/03/09 09:17:07;;;;;;;8.77;7.88;;;;;;;21.40;28.48;99284.03;4915778;29;20042;-50
2022/03/09 09:19:34;;;;;;;13.13;8.32;;;;;;;22.60;26.68;99267.25;4915838;29;20032;-50
2022/03/09 09:22:01;;;;;;;12.23;9.63;;;;;;;23.22;25.95;99273.47;4915848;29;20028;-51
2022/03/09 09:24:27;;;;;;;11.13;9.30;;;;;;;23.65;25.23;99275.81;4915867;29;20387;-50
2022/03/09 09:26:53;;;;;;;11.43;9.73;;;;;;;24.23;24.93;99270.00;4914536;29;20503;-50
2022/03/09 09:29:19;;;;;;;9.77;7.03;;;;;;;24.42;23.90;99265.59;4914584;29;20028;-51
2022/03/09 09:31:48;;;;;;;13.57;7.20;;;;;;;24.34;23.94;99271.53;4898741;29;20406;-50
2022/03/09 09:34:15;;;;;;;12.32;7.80;;;;;;;24.57;23.70;99272.78;4915645;29;20070;-50
2022/03/09 09:36:44;;;;;;;9.82;7.07;;;;;;;24.87;23.09;99266.41;4914368;29;20024;-50
2022/03/09 09:39:13;;;;;;;8.60;7.20;;;;;;;24.88;22.85;99267.19;4915847;29;20622;-51
2022/03/09 09:41:42;;;;;;;12.43;8.20;;;;;;;24.96;23.82;99258.53;4915626;29;20020;-50
2022/03/09 09:44:10;;;;;;;9.98;7.90;;;;;;;24.74;23.30;99256.28;4915621;29;20032;-50
2022/03/09 09:46:41;;;;;;;11.32;8.80;;;;;;;24.56;23.31;99260.44;4915607;29;20024;-50
2022/03/09 09:49:13;;;;;;;11.70;8.48;;;;;;;24.51;23.64;99250.53;4914353;29;20040;-50
2022/03/09 09:51:40;;;;;;;14.77;8.18;;;;;;;24.28;23.53;99254.66;4915869;29;20024;-50
2022/03/09 09:54:07;;;;;;;10.65;7.63;;;;;;;24.07;23.81;99250.50;4919432;29;20029;-50
2022/03/09 09:56:38;;;;;;;10.88;8.02;;;;;;;24.13;23.93;99265.47;4918074;29;20119;-50
2022/03/09 09:59:05;;;;;;;14.38;7.75;;;;;;;24.15;23.43;99263.31;4919629;29;20035;-51
2022/03/09 10:01:31;;;;;;;9.38;6.82;;;;;;;24.21;23.44;99262.22;4919549;29;20028;-51
2022/03/09 10:03:56;;;;;;;13.93;6.97;;;;;;;23.69;23.87;99256.22;4917980;29;20035;-51
2022/03/09 10:06:22;;;;;;;12.20;7.25;;;;;;;23.16;24.46;99257.66;4917942;29;20030;-51
2022/03/09 10:09:07;;;;;;;10.07;7.30;;;;;;;22.96;24.54;99258.44;4919208;29;20479;-51
2022/03/09 10:11:54;;;;;;;9.50;7.47;;;;;;;22.78;25.30;99254.41;4919136;29;20032;-51
2022/03/09 10:14:49;;;;;;;9.45;6.65;;;;;;;22.79;25.58;99264.84;4917501;29;20048;-50
2022/03/09 10:17:21;;;;;;;9.00;6.25;;;;;;;22.98;24.47;99265.16;4917771;29;20636;-50
2022/03/09 10:19:52;;;;;;;11.57;7.60;;;;;;;23.19;24.64;99268.63;4917695;29;20114;-49
2022/03/09 10:22:33;;;;;;;10.40;7.63;;;;;;;23.73;24.40;99268.00;4919016;29;20039;-50
2022/03/09 10:25:18;;;;;;;10.65;6.85;;;;;;;24.41;23.28;99255.94;4918952;29;20024;-51
2022/03/09 10:27:45;;;;;;;9.80;7.05;;;;;;;24.78;24.23;99259.22;4918940;29;20028;-50
2022/03/09 10:30:13;;;;;;;10.95;8.05;;;;;;;25.03;22.51;99255.50;4918810;29;20032;-50
2022/03/09 10:32:48;;;;;;;15.73;7.55;;;;;;;25.12;22.26;99251.16;4918670;29;20490;-51
2022/03/09 10:35:35;;;;;;;18.55;7.90;;;;;;;25.21;22.87;99262.06;4918781;29;20494;-50
2022/03/09 10:38:06;;;;;;;11.98;8.23;;;;;;;25.65;21.57;99261.13;4913745;29;20075;-50
2022/03/09 10:40:42;;;;;;;11.65;7.30;;;;;;;25.68;21.66;99249.81;4918652;29;20435;-50
2022/03/09 10:43:33;;;;;;;12.13;8.43;;;;;;;25.63;21.71;99249.88;4918651;29;20039;-50
2022/03/09 10:46:04;;;;;;;10.23;8.20;;;;;;;26.33;21.32;99248.50;4917302;29;20071;-51
2022/03/09 10:48:53;;;;;;;12.82;8.43;;;;;;;26.49;21.31;99239.09;4918534;29;20033;-51
2022/03/09 10:51:37;;;;;;;11.15;7.82;;;;;;;26.57;20.83;99243.03;4918479;29;20537;-51
2022/03/09 10:54:10;;;;;;;12.43;7.73;;;;;;;26.54;21.45;99240.91;4918459;29;20036;-51
2022/03/09 10:56:37;;;;;;;12.43;7.32;;;;;;;26.54;20.44;99240.91;4917051;29;20067;-51
2022/03/09 10:59:19;;;;;;;10.35;7.25;;;;;;;26.67;20.39;99242.91;4918589;29;20024;-51
2022/03/09 11:02:03;;;;;;;9.32;8.00;;;;;;;26.92;20.57;99233.59;4918318;29;20486;-51
2022/03/09 11:04:28;;;;;;;9.23;7.05;;;;;;;26.78;20.26;99238.16;4916186;29;20032;-51
2022/03/09 11:06:57;;;;;;;8.48;7.50;;;;;;;26.24;20.40;99235.69;4918182;29;20566;-51
2022/03/09 11:09:23;;;;;;;12.45;7.82;;;;;;;25.74;21.10;99242.50;4916842;29;20025;-51
2022/03/09 11:11:50;;;;;;;16.98;7.97;;;;;;;25.52;20.87;99241.91;4916806;29;20039;-50
2022/03/09 11:14:18;;;;;;;7.85;7.05;;;;;;;25.00;21.70;99242.66;4917690;29;20514;-50
2022/03/09 11:16:45;;;;;;;10.73;6.10;;;;;;;24.88;21.99;99235.78;4917988;29;20032;-50
2022/03/09 11:19:13;;;;;;;12.05;7.10;;;;;;;25.15;21.61;99237.13;4916687;29;20035;-50
2022/03/09 11:21:44;;;;;;;7.80;6.65;;;;;;;25.76;21.13;99224.97;4916783;29;20016;-50
2022/03/09 11:24:13;;;;;;;10.35;6.30;;;;;;;25.02;21.54;99232.44;4917855;29;20530;-49